sensor_id;sensor_type;location;lat;lon;timestamp;P1;durP1;ratioP1;P2;durP2;ratioP2
6973;SDS011;3527;52.376;8.990;2023-08-06T00:01:03;6.83;;;5.70;;
6973;SDS011;3527;52.376;8.990;2023-08-06T00:03:30;8.80;;;6.03;;
6973;SDS011;3527;52.376;8.990;2023-08-06T00:05:57;8.33;;;6.17;;
6973;SDS011;3527;52.376;8.990;2023-08-06T00:08:24;8.53;;;5.90;;
6973;SDS011;3527;52.376;8.990;2023-08-06T00:10:51;7.73;;;5.60;;
6973;SDS011;3527;52.376;8.990;2023-08-06T00:13:18;12.73;;;6.10;;
6973;SDS011;3527;52.376;8.990;2023-08-06T00:15:45;8.77;;;6.00;;
6973;SDS011;3527;52.376;8.990;2023-08-06T00:18:12;9.47;;;6.73;;
6973;SDS011;3527;52.376;8.990;2023-08-06T00:20:39;9.27;;;6.27;;
6973;SDS011;3527;52.376;8.990;2023-08-06T00:23:09;9.40;;;6.33;;
6973;SDS011;3527;52.376;8.990;2023-08-06T00:25:38;8.60;;;5.63;;
6973;SDS011;3527;52.376;8.990;2023-08-06T00:28:05;11.43;;;6.40;;
6973;SDS011;3527;52.376;8.990;2023-08-06T00:30:32;8.03;;;6.30;;
6973;SDS011;3527;52.376;8.990;2023-08-06T00:32:59;8.03;;;6.07;;
6973;SDS011;3527;52.376;8.990;2023-08-06T00:35:26;8.83;;;5.83;;
6973;SDS011;3527;52.376;8.990;2023-08-06T00:37:53;10.33;;;6.13;;
6973;SDS011;3527;52.376;8.990;2023-08-06T00:40:20;7.17;;;5.83;;
6973;SDS011;3527;52.376;8.990;2023-08-06T00:42:49;9.03;;;6.27;;
6973;SDS011;3527;52.376;8.990;2023-08-06T00:45:16;7.83;;;5.50;;
6973;SDS011;3527;52.376;8.990;2023-08-06T00:47:43;8.83;;;6.00;;
6973;SDS011;3527;52.376;8.990;2023-08-06T00:50:10;9.93;;;5.90;;
6973;SDS011;3527;52.376;8.990;2023-08-06T00:52:37;6.73;;;5.27;;
6973;SDS011;3527;52.376;8.990;2023-08-06T00:55:05;7.13;;;5.23;;
6973;SDS011;3527;52.376;8.990;2023-08-06T00:57:33;7.13;;;5.20;;
6973;SDS011;3527;52.376;8.990;2023-08-06T01:00:00;10.60;;;5.30;;
6973;SDS011;3527;52.376;8.990;2023-08-06T01:02:28;5.47;;;4.77;;
6973;SDS011;3527;52.376;8.990;2023-08-06T01:04:55;9.50;;;5.40;;
6973;SDS011;3527;52.376;8.990;2023-08-06T01:15:53;6.03;;;5.10;;
6973;SDS011;3527;52.376;8.990;2023-08-06T01:18:26;7.97;;;4.87;;
6973;SDS011;3527;52.376;8.990;2023-08-06T01:20:53;6.47;;;4.53;;
6973;SDS011;3527;52.376;8.990;2023-08-06T01:23:20;6.33;;;4.13;;
6973;SDS011;3527;52.376;8.990;2023-08-06T01:28:55;6.10;;;4.07;;
6973;SDS011;3527;52.376;8.990;2023-08-06T01:31:35;6.97;;;4.73;;
6973;SDS011;3527;52.376;8.990;2023-08-06T01:36:50;5.33;;;4.40;;
6973;SDS011;3527;52.376;8.990;2023-08-06T01:39:18;5.67;;;4.83;;
6973;SDS011;3527;52.376;8.990;2023-08-06T01:41:48;6.33;;;4.60;;
6973;SDS011;3527;52.376;8.990;2023-08-06T01:44:16;5.23;;;4.57;;
6973;SDS011;3527;52.376;8.990;2023-08-06T01:46:43;5.23;;;4.37;;
6973;SDS011;3527;52.376;8.990;2023-08-06T01:49:10;7.50;;;4.97;;
6973;SDS011;3527;52.376;8.990;2023-08-06T01:51:37;8.90;;;4.87;;
6973;SDS011;3527;52.376;8.990;2023-08-06T01:54:04;6.80;;;4.97;;
6973;SDS011;3527;52.376;8.990;2023-08-06T01:56:31;7.23;;;4.53;;
6973;SDS011;3527;52.376;8.990;2023-08-06T01:58:58;8.70;;;5.13;;
6973;SDS011;3527;52.376;8.990;2023-08-06T02:01:30;7.23;;;4.97;;
6973;SDS011;3527;52.376;8.990;2023-08-06T02:03:57;6.30;;;4.93;;
6973;SDS011;3527;52.376;8.990;2023-08-06T02:06:24;7.40;;;5.00;;
6973;SDS011;3527;52.376;8.990;2023-08-06T02:08:51;7.87;;;5.10;;
6973;SDS011;3527;52.376;8.990;2023-08-06T02:11:18;6.80;;;5.00;;
6973;SDS011;3527;52.376;8.990;2023-08-06T02:13:45;6.10;;;5.03;;
6973;SDS011;3527;52.376;8.990;2023-08-06T02:16:12;6.13;;;4.67;;
6973;SDS011;3527;52.376;8.990;2023-08-06T02:18:39;7.90;;;4.87;;
6973;SDS011;3527;52.376;8.990;2023-08-06T02:21:06;6.43;;;4.50;;
6973;SDS011;3527;52.376;8.990;2023-08-06T02:23:33;7.87;;;4.70;;
6973;SDS011;3527;52.376;8.990;2023-08-06T02:26:00;5.80;;;4.33;;
6973;SDS011;3527;52.376;8.990;2023-08-06T02:28:29;6.10;;;4.60;;
6973;SDS011;3527;52.376;8.990;2023-08-06T02:30:56;6.57;;;4.70;;
6973;SDS011;3527;52.376;8.990;2023-08-06T02:33:23;13.77;;;4.87;;
6973;SDS011;3527;52.376;8.990;2023-08-06T02:35:50;5.40;;;4.27;;
6973;SDS011;3527;52.376;8.990;2023-08-06T02:38:17;6.80;;;4.33;;
6973;SDS011;3527;52.376;8.990;2023-08-06T02:40:45;7.03;;;4.73;;
6973;SDS011;3527;52.376;8.990;2023-08-06T02:43:12;7.17;;;4.10;;
6973;SDS011;3527;52.376;8.990;2023-08-06T02:45:40;8.30;;;4.67;;
6973;SDS011;3527;52.376;8.990;2023-08-06T02:48:07;9.03;;;4.60;;
6973;SDS011;3527;52.376;8.990;2023-08-06T02:50:37;6.73;;;4.53;;
6973;SDS011;3527;52.376;8.990;2023-08-06T02:53:06;7.50;;;4.83;;
6973;SDS011;3527;52.376;8.990;2023-08-06T02:55:33;5.60;;;4.30;;
6973;SDS011;3527;52.376;8.990;2023-08-06T02:58:01;5.23;;;4.63;;
6973;SDS011;3527;52.376;8.990;2023-08-06T03:00:29;7.80;;;4.90;;
6973;SDS011;3527;52.376;8.990;2023-08-06T03:02:55;6.77;;;4.90;;
6973;SDS011;3527;52.376;8.990;2023-08-06T03:05:22;8.43;;;5.23;;
6973;SDS011;3527;52.376;8.990;2023-08-06T03:07:49;6.57;;;4.10;;
6973;SDS011;3527;52.376;8.990;2023-08-06T03:10:16;10.53;;;5.17;;
6973;SDS011;3527;52.376;8.990;2023-08-06T03:12:43;6.37;;;4.43;;
6973;SDS011;3527;52.376;8.990;2023-08-06T03:15:10;7.60;;;5.23;;
6973;SDS011;3527;52.376;8.990;2023-08-06T03:17:37;6.77;;;4.60;;
6973;SDS011;3527;52.376;8.990;2023-08-06T03:20:05;8.00;;;4.60;;
6973;SDS011;3527;52.376;8.990;2023-08-06T03:22:32;6.17;;;4.60;;
6973;SDS011;3527;52.376;8.990;2023-08-06T03:24:59;10.07;;;4.37;;
6973;SDS011;3527;52.376;8.990;2023-08-06T03:27:26;5.87;;;4.83;;
6973;SDS011;3527;52.376;8.990;2023-08-06T03:29:53;7.03;;;4.93;;
6973;SDS011;3527;52.376;8.990;2023-08-06T03:32:20;7.80;;;5.33;;
6973;SDS011;3527;52.376;8.990;2023-08-06T03:34:47;7.30;;;4.43;;
6973;SDS011;3527;52.376;8.990;2023-08-06T03:37:14;10.07;;;5.53;;
6973;SDS011;3527;52.376;8.990;2023-08-06T03:39:41;9.80;;;5.90;;
6973;SDS011;3527;52.376;8.990;2023-08-06T03:42:08;7.23;;;5.50;;
6973;SDS011;3527;52.376;8.990;2023-08-06T03:44:35;7.13;;;5.23;;
6973;SDS011;3527;52.376;8.990;2023-08-06T03:47:02;6.10;;;5.13;;
6973;SDS011;3527;52.376;8.990;2023-08-06T03:49:29;7.57;;;6.40;;
6973;SDS011;3527;52.376;8.990;2023-08-06T03:51:56;8.80;;;5.83;;
6973;SDS011;3527;52.376;8.990;2023-08-06T03:54:23;9.33;;;5.77;;
6973;SDS011;3527;52.376;8.990;2023-08-06T03:56:49;8.63;;;6.10;;
6973;SDS011;3527;52.376;8.990;2023-08-06T03:59:16;6.43;;;5.10;;
6973;SDS011;3527;52.376;8.990;2023-08-06T04:01:44;10.40;;;6.13;;
6973;SDS011;3527;52.376;8.990;2023-08-06T04:04:11;8.00;;;5.93;;
6973;SDS011;3527;52.376;8.990;2023-08-06T04:06:38;9.10;;;5.83;;
6973;SDS011;3527;52.376;8.990;2023-08-06T04:09:04;10.13;;;6.60;;
6973;SDS011;3527;52.376;8.990;2023-08-06T04:11:31;13.00;;;6.97;;
6973;SDS011;3527;52.376;8.990;2023-08-06T04:14:18;10.60;;;7.30;;
6973;SDS011;3527;52.376;8.990;2023-08-06T04:17:04;9.80;;;6.63;;
6973;SDS011;3527;52.376;8.990;2023-08-06T04:19:48;9.60;;;7.13;;
6973;SDS011;3527;52.376;8.990;2023-08-06T04:22:36;8.17;;;5.93;;
6973;SDS011;3527;52.376;8.990;2023-08-06T04:25:11;10.50;;;7.00;;
6973;SDS011;3527;52.376;8.990;2023-08-06T04:27:57;8.20;;;6.37;;
6973;SDS011;3527;52.376;8.990;2023-08-06T04:30:42;10.87;;;8.10;;
6973;SDS011;3527;52.376;8.990;2023-08-06T04:33:18;8.87;;;6.87;;
6973;SDS011;3527;52.376;8.990;2023-08-06T04:36:05;8.80;;;6.80;;
6973;SDS011;3527;52.376;8.990;2023-08-06T04:38:47;12.40;;;7.53;;
6973;SDS011;3527;52.376;8.990;2023-08-06T04:41:34;11.33;;;7.50;;
6973;SDS011;3527;52.376;8.990;2023-08-06T04:44:21;12.43;;;7.60;;
6973;SDS011;3527;52.376;8.990;2023-08-06T04:46:48;12.70;;;8.43;;
6973;SDS011;3527;52.376;8.990;2023-08-06T04:49:14;11.23;;;8.03;;
6973;SDS011;3527;52.376;8.990;2023-08-06T04:51:41;13.07;;;7.83;;
6973;SDS011;3527;52.376;8.990;2023-08-06T04:54:08;12.87;;;7.50;;
6973;SDS011;3527;52.376;8.990;2023-08-06T04:56:35;11.77;;;7.73;;
6973;SDS011;3527;52.376;8.990;2023-08-06T04:59:02;13.60;;;9.13;;
6973;SDS011;3527;52.376;8.990;2023-08-06T05:01:28;11.93;;;8.77;;
6973;SDS011;3527;52.376;8.990;2023-08-06T05:03:56;12.40;;;8.80;;
6973;SDS011;3527;52.376;8.990;2023-08-06T05:06:24;13.07;;;9.13;;
6973;SDS011;3527;52.376;8.990;2023-08-06T05:08:51;14.63;;;10.43;;
6973;SDS011;3527;52.376;8.990;2023-08-06T05:11:18;14.53;;;9.23;;
6973;SDS011;3527;52.376;8.990;2023-08-06T05:13:45;15.80;;;10.23;;
6973;SDS011;3527;52.376;8.990;2023-08-06T05:16:11;13.87;;;9.20;;
6973;SDS011;3527;52.376;8.990;2023-08-06T05:18:38;18.50;;;11.80;;
6973;SDS011;3527;52.376;8.990;2023-08-06T05:21:05;24.20;;;11.30;;
6973;SDS011;3527;52.376;8.990;2023-08-06T05:23:32;23.83;;;12.57;;
6973;SDS011;3527;52.376;8.990;2023-08-06T05:25:59;18.97;;;10.50;;
6973;SDS011;3527;52.376;8.990;2023-08-06T05:28:26;16.00;;;10.77;;
6973;SDS011;3527;52.376;8.990;2023-08-06T05:30:53;13.87;;;9.83;;
6973;SDS011;3527;52.376;8.990;2023-08-06T05:33:20;13.13;;;10.03;;
6973;SDS011;3527;52.376;8.990;2023-08-06T05:35:47;12.70;;;9.37;;
6973;SDS011;3527;52.376;8.990;2023-08-06T05:38:15;15.17;;;10.43;;
6973;SDS011;3527;52.376;8.990;2023-08-06T05:40:43;12.83;;;9.10;;
6973;SDS011;3527;52.376;8.990;2023-08-06T05:43:10;13.93;;;8.93;;
6973;SDS011;3527;52.376;8.990;2023-08-06T05:45:37;13.23;;;9.37;;
6973;SDS011;3527;52.376;8.990;2023-08-06T05:48:04;10.40;;;8.50;;
6973;SDS011;3527;52.376;8.990;2023-08-06T05:50:31;13.37;;;8.73;;
6973;SDS011;3527;52.376;8.990;2023-08-06T05:52:58;10.53;;;8.37;;
6973;SDS011;3527;52.376;8.990;2023-08-06T05:55:27;12.17;;;8.93;;
6973;SDS011;3527;52.376;8.990;2023-08-06T05:57:54;8.70;;;7.20;;
6973;SDS011;3527;52.376;8.990;2023-08-06T06:00:21;10.07;;;7.80;;
6973;SDS011;3527;52.376;8.990;2023-08-06T06:02:48;9.87;;;8.00;;
6973;SDS011;3527;52.376;8.990;2023-08-06T06:05:15;8.53;;;7.63;;
6973;SDS011;3527;52.376;8.990;2023-08-06T06:07:42;9.80;;;7.13;;
6973;SDS011;3527;52.376;8.990;2023-08-06T06:10:09;7.20;;;5.90;;
6973;SDS011;3527;52.376;8.990;2023-08-06T06:12:38;7.80;;;6.30;;
6973;SDS011;3527;52.376;8.990;2023-08-06T06:15:05;7.83;;;5.43;;
6973;SDS011;3527;52.376;8.990;2023-08-06T06:17:32;7.13;;;5.70;;
6973;SDS011;3527;52.376;8.990;2023-08-06T06:20:00;7.97;;;6.07;;
6973;SDS011;3527;52.376;8.990;2023-08-06T06:22:27;8.53;;;5.30;;
6973;SDS011;3527;52.376;8.990;2023-08-06T06:24:53;6.00;;;5.13;;
6973;SDS011;3527;52.376;8.990;2023-08-06T06:27:20;8.83;;;5.07;;
6973;SDS011;3527;52.376;8.990;2023-08-06T06:29:47;6.73;;;5.27;;
6973;SDS011;3527;52.376;8.990;2023-08-06T06:32:14;7.47;;;5.00;;
6973;SDS011;3527;52.376;8.990;2023-08-06T06:34:41;8.63;;;4.80;;
6973;SDS011;3527;52.376;8.990;2023-08-06T06:37:08;5.60;;;4.50;;
6973;SDS011;3527;52.376;8.990;2023-08-06T06:39:35;5.23;;;4.00;;
6973;SDS011;3527;52.376;8.990;2023-08-06T06:42:02;7.60;;;5.10;;
6973;SDS011;3527;52.376;8.990;2023-08-06T06:44:29;5.67;;;4.23;;
6973;SDS011;3527;52.376;8.990;2023-08-06T06:46:56;6.20;;;4.13;;
6973;SDS011;3527;52.376;8.990;2023-08-06T06:49:22;5.00;;;4.20;;
6973;SDS011;3527;52.376;8.990;2023-08-06T06:51:49;5.40;;;3.80;;
6973;SDS011;3527;52.376;8.990;2023-08-06T06:54:17;4.60;;;3.50;;
6973;SDS011;3527;52.376;8.990;2023-08-06T06:56:44;4.27;;;3.13;;
6973;SDS011;3527;52.376;8.990;2023-08-06T06:59:11;4.10;;;3.70;;
6973;SDS011;3527;52.376;8.990;2023-08-06T07:01:38;3.80;;;3.23;;
6973;SDS011;3527;52.376;8.990;2023-08-06T07:04:05;5.27;;;3.53;;
6973;SDS011;3527;52.376;8.990;2023-08-06T07:06:32;4.67;;;3.43;;
6973;SDS011;3527;52.376;8.990;2023-08-06T07:08:58;4.37;;;3.03;;
6973;SDS011;3527;52.376;8.990;2023-08-06T07:11:25;3.80;;;3.40;;
6973;SDS011;3527;52.376;8.990;2023-08-06T07:13:56;4.23;;;3.00;;
6973;SDS011;3527;52.376;8.990;2023-08-06T07:16:25;3.80;;;3.10;;
6973;SDS011;3527;52.376;8.990;2023-08-06T07:18:53;4.07;;;2.97;;
6973;SDS011;3527;52.376;8.990;2023-08-06T07:21:21;4.40;;;2.80;;
6973;SDS011;3527;52.376;8.990;2023-08-06T07:23:48;5.10;;;3.00;;
6973;SDS011;3527;52.376;8.990;2023-08-06T07:26:18;4.20;;;3.07;;
6973;SDS011;3527;52.376;8.990;2023-08-06T07:28:46;4.30;;;2.83;;
6973;SDS011;3527;52.376;8.990;2023-08-06T07:31:14;3.47;;;3.03;;
6973;SDS011;3527;52.376;8.990;2023-08-06T07:33:41;4.07;;;2.83;;
6973;SDS011;3527;52.376;8.990;2023-08-06T07:36:10;2.90;;;2.60;;
6973;SDS011;3527;52.376;8.990;2023-08-06T07:38:39;5.03;;;2.90;;
6973;SDS011;3527;52.376;8.990;2023-08-06T07:41:12;3.77;;;2.60;;
6973;SDS011;3527;52.376;8.990;2023-08-06T07:43:53;4.93;;;2.87;;
6973;SDS011;3527;52.376;8.990;2023-08-06T07:46:22;6.67;;;2.80;;
6973;SDS011;3527;52.376;8.990;2023-08-06T07:48:53;4.80;;;2.93;;
6973;SDS011;3527;52.376;8.990;2023-08-06T07:51:22;3.50;;;2.77;;
6973;SDS011;3527;52.376;8.990;2023-08-06T07:53:50;4.23;;;2.90;;
6973;SDS011;3527;52.376;8.990;2023-08-06T07:56:18;4.63;;;3.00;;
6973;SDS011;3527;52.376;8.990;2023-08-06T07:58:46;3.17;;;2.80;;
6973;SDS011;3527;52.376;8.990;2023-08-06T08:01:27;3.33;;;2.80;;
6973;SDS011;3527;52.376;8.990;2023-08-06T08:03:57;3.40;;;2.90;;
6973;SDS011;3527;52.376;8.990;2023-08-06T08:06:25;4.70;;;2.63;;
6973;SDS011;3527;52.376;8.990;2023-08-06T08:08:58;3.63;;;2.60;;
6973;SDS011;3527;52.376;8.990;2023-08-06T08:11:26;3.70;;;2.90;;
6973;SDS011;3527;52.376;8.990;2023-08-06T08:13:56;4.20;;;2.90;;
6973;SDS011;3527;52.376;8.990;2023-08-06T08:16:26;3.03;;;2.43;;
6973;SDS011;3527;52.376;8.990;2023-08-06T08:18:58;4.00;;;2.70;;
6973;SDS011;3527;52.376;8.990;2023-08-06T08:21:26;4.53;;;2.77;;
6973;SDS011;3527;52.376;8.990;2023-08-06T08:23:54;3.77;;;2.50;;
6973;SDS011;3527;52.376;8.990;2023-08-06T08:26:21;3.13;;;2.70;;
6973;SDS011;3527;52.376;8.990;2023-08-06T08:28:48;3.80;;;2.80;;
6973;SDS011;3527;52.376;8.990;2023-08-06T08:31:16;4.10;;;2.80;;
6973;SDS011;3527;52.376;8.990;2023-08-06T08:33:59;3.50;;;2.67;;
6973;SDS011;3527;52.376;8.990;2023-08-06T08:36:51;4.00;;;3.10;;
6973;SDS011;3527;52.376;8.990;2023-08-06T08:39:20;3.73;;;2.70;;
6973;SDS011;3527;52.376;8.990;2023-08-06T08:41:58;3.77;;;2.87;;
6973;SDS011;3527;52.376;8.990;2023-08-06T08:44:26;5.10;;;3.00;;
6973;SDS011;3527;52.376;8.990;2023-08-06T08:47:21;4.73;;;2.80;;
6973;SDS011;3527;52.376;8.990;2023-08-06T08:50:32;3.70;;;2.73;;
6973;SDS011;3527;52.376;8.990;2023-08-06T08:53:23;4.53;;;3.00;;
6973;SDS011;3527;52.376;8.990;2023-08-06T08:56:53;3.70;;;2.47;;
6973;SDS011;3527;52.376;8.990;2023-08-06T08:59:28;4.83;;;2.97;;
6973;SDS011;3527;52.376;8.990;2023-08-06T09:02:12;3.13;;;2.50;;
6973;SDS011;3527;52.376;8.990;2023-08-06T09:05:38;2.97;;;2.63;;
6973;SDS011;3527;52.376;8.990;2023-08-06T09:08:27;3.53;;;2.83;;
6973;SDS011;3527;52.376;8.990;2023-08-06T09:12:00;9.00;;;2.77;;
6973;SDS011;3527;52.376;8.990;2023-08-06T09:15:31;3.73;;;3.00;;
6973;SDS011;3527;52.376;8.990;2023-08-06T09:18:13;4.30;;;2.77;;
6973;SDS011;3527;52.376;8.990;2023-08-06T09:21:01;3.73;;;2.40;;
6973;SDS011;3527;52.376;8.990;2023-08-06T09:24:23;3.30;;;2.80;;
6973;SDS011;3527;52.376;8.990;2023-08-06T09:27:29;2.67;;;2.40;;
6973;SDS011;3527;52.376;8.990;2023-08-06T09:30:28;3.57;;;2.40;;
6973;SDS011;3527;52.376;8.990;2023-08-06T09:33:31;2.80;;;2.40;;
6973;SDS011;3527;52.376;8.990;2023-08-06T09:37:11;3.00;;;2.70;;
6973;SDS011;3527;52.376;8.990;2023-08-06T09:40:54;2.97;;;2.47;;
6973;SDS011;3527;52.376;8.990;2023-08-06T09:43:22;3.37;;;2.43;;
6973;SDS011;3527;52.376;8.990;2023-08-06T09:46:20;6.27;;;3.53;;
6973;SDS011;3527;52.376;8.990;2023-08-06T09:48:50;3.13;;;2.70;;
6973;SDS011;3527;52.376;8.990;2023-08-06T09:51:17;4.40;;;3.13;;
6973;SDS011;3527;52.376;8.990;2023-08-06T09:53:44;4.22;;;2.50;;
6973;SDS011;3527;52.376;8.990;2023-08-06T09:57:21;2.58;;;2.20;;
6973;SDS011;3527;52.376;8.990;2023-08-06T09:59:51;3.20;;;2.30;;
6973;SDS011;3527;52.376;8.990;2023-08-06T10:02:19;2.33;;;2.13;;
6973;SDS011;3527;52.376;8.990;2023-08-06T10:04:51;3.55;;;2.25;;
6973;SDS011;3527;52.376;8.990;2023-08-06T10:07:24;4.93;;;2.70;;
6973;SDS011;3527;52.376;8.990;2023-08-06T10:09:58;3.80;;;2.30;;
6973;SDS011;3527;52.376;8.990;2023-08-06T10:12:34;4.00;;;2.20;;
6973;SDS011;3527;52.376;8.990;2023-08-06T10:15:16;2.38;;;1.95;;
6973;SDS011;3527;52.376;8.990;2023-08-06T10:17:51;3.92;;;2.42;;
6973;SDS011;3527;52.376;8.990;2023-08-06T10:20:21;3.28;;;2.10;;
6973;SDS011;3527;52.376;8.990;2023-08-06T10:23:00;2.38;;;2.08;;
6973;SDS011;3527;52.376;8.990;2023-08-06T10:25:32;5.20;;;2.43;;
6973;SDS011;3527;52.376;8.990;2023-08-06T10:28:10;4.23;;;2.47;;
6973;SDS011;3527;52.376;8.990;2023-08-06T10:30:47;4.30;;;2.30;;
6973;SDS011;3527;52.376;8.990;2023-08-06T10:33:19;2.93;;;2.50;;
6973;SDS011;3527;52.376;8.990;2023-08-06T10:35:49;2.90;;;2.13;;
6973;SDS011;3527;52.376;8.990;2023-08-06T10:38:21;2.43;;;2.23;;
6973;SDS011;3527;52.376;8.990;2023-08-06T10:43:26;3.87;;;2.70;;
6973;SDS011;3527;52.376;8.990;2023-08-06T10:46:25;3.43;;;2.30;;
6973;SDS011;3527;52.376;8.990;2023-08-06T10:49:20;3.58;;;2.20;;
6973;SDS011;3527;52.376;8.990;2023-08-06T10:52:13;5.10;;;2.88;;
6973;SDS011;3527;52.376;8.990;2023-08-06T10:54:40;2.93;;;2.30;;
6973;SDS011;3527;52.376;8.990;2023-08-06T10:57:26;3.28;;;2.70;;
6973;SDS011;3527;52.376;8.990;2023-08-06T11:00:13;3.93;;;2.47;;
6973;SDS011;3527;52.376;8.990;2023-08-06T11:03:00;4.43;;;2.23;;
6973;SDS011;3527;52.376;8.990;2023-08-06T11:05:56;2.60;;;2.15;;
6973;SDS011;3527;52.376;8.990;2023-08-06T11:08:25;2.80;;;2.35;;
6973;SDS011;3527;52.376;8.990;2023-08-06T11:11:19;2.67;;;2.17;;
6973;SDS011;3527;52.376;8.990;2023-08-06T11:13:54;2.75;;;2.38;;
6973;SDS011;3527;52.376;8.990;2023-08-06T11:16:28;3.10;;;2.42;;
6973;SDS011;3527;52.376;8.990;2023-08-06T11:19:10;2.92;;;2.10;;
6973;SDS011;3527;52.376;8.990;2023-08-06T11:22:04;3.58;;;2.38;;
6973;SDS011;3527;52.376;8.990;2023-08-06T11:25:23;2.45;;;2.17;;
6973;SDS011;3527;52.376;8.990;2023-08-06T11:28:01;3.20;;;2.63;;
6973;SDS011;3527;52.376;8.990;2023-08-06T11:30:42;4.17;;;2.47;;
6973;SDS011;3527;52.376;8.990;2023-08-06T11:33:21;2.95;;;2.15;;
6973;SDS011;3527;52.376;8.990;2023-08-06T11:35:52;3.00;;;2.63;;
6973;SDS011;3527;52.376;8.990;2023-08-06T11:38:26;3.33;;;2.70;;
6973;SDS011;3527;52.376;8.990;2023-08-06T11:41:21;5.70;;;3.63;;
6973;SDS011;3527;52.376;8.990;2023-08-06T11:43:49;9.13;;;4.03;;
6973;SDS011;3527;52.376;8.990;2023-08-06T11:46:20;12.43;;;4.30;;
6973;SDS011;3527;52.376;8.990;2023-08-06T11:48:51;3.90;;;3.17;;
6973;SDS011;3527;52.376;8.990;2023-08-06T11:51:27;3.77;;;3.10;;
6973;SDS011;3527;52.376;8.990;2023-08-06T11:53:55;6.53;;;3.87;;
6973;SDS011;3527;52.376;8.990;2023-08-06T11:56:35;6.13;;;4.00;;
6973;SDS011;3527;52.376;8.990;2023-08-06T11:59:02;6.07;;;3.87;;
6973;SDS011;3527;52.376;8.990;2023-08-06T12:01:31;4.17;;;3.00;;
6973;SDS011;3527;52.376;8.990;2023-08-06T12:03:59;5.20;;;2.63;;
6973;SDS011;3527;52.376;8.990;2023-08-06T12:06:27;5.80;;;2.30;;
6973;SDS011;3527;52.376;8.990;2023-08-06T12:08:55;2.57;;;2.00;;
6973;SDS011;3527;52.376;8.990;2023-08-06T12:11:23;2.70;;;1.87;;
6973;SDS011;3527;52.376;8.990;2023-08-06T12:13:51;3.43;;;2.00;;
6973;SDS011;3527;52.376;8.990;2023-08-06T12:16:18;5.23;;;2.10;;
6973;SDS011;3527;52.376;8.990;2023-08-06T12:18:47;3.10;;;2.10;;
6973;SDS011;3527;52.376;8.990;2023-08-06T12:21:16;5.03;;;2.47;;
6973;SDS011;3527;52.376;8.990;2023-08-06T12:23:43;3.60;;;2.57;;
6973;SDS011;3527;52.376;8.990;2023-08-06T12:26:10;5.37;;;2.33;;
6973;SDS011;3527;52.376;8.990;2023-08-06T12:28:37;4.37;;;2.40;;
6973;SDS011;3527;52.376;8.990;2023-08-06T12:31:04;4.63;;;2.97;;
6973;SDS011;3527;52.376;8.990;2023-08-06T12:33:34;3.60;;;2.57;;
6973;SDS011;3527;52.376;8.990;2023-08-06T12:36:01;4.90;;;2.77;;
6973;SDS011;3527;52.376;8.990;2023-08-06T12:38:28;7.20;;;2.67;;
6973;SDS011;3527;52.376;8.990;2023-08-06T12:40:59;4.57;;;2.77;;
6973;SDS011;3527;52.376;8.990;2023-08-06T12:43:26;4.50;;;2.93;;
6973;SDS011;3527;52.376;8.990;2023-08-06T12:45:53;5.20;;;3.20;;
6973;SDS011;3527;52.376;8.990;2023-08-06T12:48:20;5.83;;;2.97;;
6973;SDS011;3527;52.376;8.990;2023-08-06T12:50:47;5.40;;;2.93;;
6973;SDS011;3527;52.376;8.990;2023-08-06T12:53:16;5.37;;;3.30;;
6973;SDS011;3527;52.376;8.990;2023-08-06T12:55:43;5.73;;;3.10;;
6973;SDS011;3527;52.376;8.990;2023-08-06T12:58:10;4.77;;;3.40;;
6973;SDS011;3527;52.376;8.990;2023-08-06T13:00:36;5.93;;;3.10;;
6973;SDS011;3527;52.376;8.990;2023-08-06T13:03:03;5.50;;;3.27;;
6973;SDS011;3527;52.376;8.990;2023-08-06T13:05:31;5.50;;;3.27;;
6973;SDS011;3527;52.376;8.990;2023-08-06T13:07:57;5.43;;;3.40;;
6973;SDS011;3527;52.376;8.990;2023-08-06T13:10:24;7.13;;;3.33;;
6973;SDS011;3527;52.376;8.990;2023-08-06T13:12:52;4.50;;;2.80;;
6973;SDS011;3527;52.376;8.990;2023-08-06T13:15:19;4.03;;;2.57;;
6973;SDS011;3527;52.376;8.990;2023-08-06T13:17:47;4.00;;;2.80;;
6973;SDS011;3527;52.376;8.990;2023-08-06T13:20:14;4.90;;;2.73;;
6973;SDS011;3527;52.376;8.990;2023-08-06T13:22:45;2.90;;;2.47;;
6973;SDS011;3527;52.376;8.990;2023-08-06T13:25:12;3.10;;;2.63;;
6973;SDS011;3527;52.376;8.990;2023-08-06T13:27:41;2.90;;;2.40;;
6973;SDS011;3527;52.376;8.990;2023-08-06T13:30:10;3.07;;;2.27;;
6973;SDS011;3527;52.376;8.990;2023-08-06T13:32:37;3.33;;;2.50;;
6973;SDS011;3527;52.376;8.990;2023-08-06T13:35:05;3.80;;;2.57;;
6973;SDS011;3527;52.376;8.990;2023-08-06T13:37:32;3.60;;;2.50;;
6973;SDS011;3527;52.376;8.990;2023-08-06T13:39:58;4.20;;;3.13;;
6973;SDS011;3527;52.376;8.990;2023-08-06T13:42:25;3.67;;;2.70;;
6973;SDS011;3527;52.376;8.990;2023-08-06T13:44:52;4.40;;;3.20;;
6973;SDS011;3527;52.376;8.990;2023-08-06T13:47:19;4.87;;;3.23;;
6973;SDS011;3527;52.376;8.990;2023-08-06T13:49:46;4.93;;;3.30;;
6973;SDS011;3527;52.376;8.990;2023-08-06T13:52:13;4.60;;;3.03;;
6973;SDS011;3527;52.376;8.990;2023-08-06T13:54:48;4.13;;;3.00;;
6973;SDS011;3527;52.376;8.990;2023-08-06T13:57:15;3.20;;;2.80;;
6973;SDS011;3527;52.376;8.990;2023-08-06T13:59:44;4.30;;;3.07;;
6973;SDS011;3527;52.376;8.990;2023-08-06T14:02:11;4.37;;;2.80;;
6973;SDS011;3527;52.376;8.990;2023-08-06T14:04:38;4.33;;;2.80;;
6973;SDS011;3527;52.376;8.990;2023-08-06T14:07:06;3.03;;;2.63;;
6973;SDS011;3527;52.376;8.990;2023-08-06T14:09:33;3.17;;;2.50;;
6973;SDS011;3527;52.376;8.990;2023-08-06T14:12:01;2.37;;;2.07;;
6973;SDS011;3527;52.376;8.990;2023-08-06T14:14:29;2.73;;;2.47;;
6973;SDS011;3527;52.376;8.990;2023-08-06T14:16:56;2.53;;;1.87;;
6973;SDS011;3527;52.376;8.990;2023-08-06T14:19:25;3.97;;;2.10;;
6973;SDS011;3527;52.376;8.990;2023-08-06T14:21:51;4.50;;;2.53;;
6973;SDS011;3527;52.376;8.990;2023-08-06T14:24:19;2.93;;;2.00;;
6973;SDS011;3527;52.376;8.990;2023-08-06T14:26:45;3.20;;;2.10;;
6973;SDS011;3527;52.376;8.990;2023-08-06T14:29:13;4.17;;;2.30;;
6973;SDS011;3527;52.376;8.990;2023-08-06T14:31:40;4.37;;;2.07;;
6973;SDS011;3527;52.376;8.990;2023-08-06T14:34:07;2.43;;;1.87;;
6973;SDS011;3527;52.376;8.990;2023-08-06T14:36:35;2.00;;;1.73;;
6973;SDS011;3527;52.376;8.990;2023-08-06T14:39:01;2.30;;;1.98;;
6973;SDS011;3527;52.376;8.990;2023-08-06T14:41:28;2.33;;;2.03;;
6973;SDS011;3527;52.376;8.990;2023-08-06T14:43:55;2.10;;;1.73;;
6973;SDS011;3527;52.376;8.990;2023-08-06T14:46:22;2.47;;;1.90;;
6973;SDS011;3527;52.376;8.990;2023-08-06T14:48:50;2.70;;;1.80;;
6973;SDS011;3527;52.376;8.990;2023-08-06T14:51:17;4.37;;;1.97;;
6973;SDS011;3527;52.376;8.990;2023-08-06T14:53:47;2.10;;;1.80;;
6973;SDS011;3527;52.376;8.990;2023-08-06T14:56:14;4.20;;;2.00;;
6973;SDS011;3527;52.376;8.990;2023-08-06T14:58:42;2.53;;;2.07;;
6973;SDS011;3527;52.376;8.990;2023-08-06T15:01:09;2.10;;;1.90;;
6973;SDS011;3527;52.376;8.990;2023-08-06T15:03:36;2.23;;;1.80;;
6973;SDS011;3527;52.376;8.990;2023-08-06T15:06:03;4.23;;;2.50;;
6973;SDS011;3527;52.376;8.990;2023-08-06T15:08:30;2.63;;;2.17;;
6973;SDS011;3527;52.376;8.990;2023-08-06T15:10:57;2.83;;;2.30;;
6973;SDS011;3527;52.376;8.990;2023-08-06T15:13:24;3.00;;;2.00;;
6973;SDS011;3527;52.376;8.990;2023-08-06T15:15:51;2.30;;;2.03;;
6973;SDS011;3527;52.376;8.990;2023-08-06T15:18:18;2.73;;;2.40;;
6973;SDS011;3527;52.376;8.990;2023-08-06T15:20:46;2.47;;;2.10;;
6973;SDS011;3527;52.376;8.990;2023-08-06T15:23:13;2.93;;;2.10;;
6973;SDS011;3527;52.376;8.990;2023-08-06T15:25:41;5.37;;;2.27;;
6973;SDS011;3527;52.376;8.990;2023-08-06T15:28:08;2.47;;;2.27;;
6973;SDS011;3527;52.376;8.990;2023-08-06T15:30:34;2.23;;;2.00;;
6973;SDS011;3527;52.376;8.990;2023-08-06T15:33:02;2.03;;;1.80;;
6973;SDS011;3527;52.376;8.990;2023-08-06T15:35:29;2.27;;;1.93;;
6973;SDS011;3527;52.376;8.990;2023-08-06T15:37:56;4.33;;;1.97;;
6973;SDS011;3527;52.376;8.990;2023-08-06T15:40:23;5.07;;;2.60;;
6973;SDS011;3527;52.376;8.990;2023-08-06T15:42:50;3.57;;;2.40;;
6973;SDS011;3527;52.376;8.990;2023-08-06T15:45:17;2.93;;;2.50;;
6973;SDS011;3527;52.376;8.990;2023-08-06T15:47:44;3.73;;;2.70;;
6973;SDS011;3527;52.376;8.990;2023-08-06T15:50:11;4.53;;;3.00;;
6973;SDS011;3527;52.376;8.990;2023-08-06T15:52:38;3.40;;;2.90;;
6973;SDS011;3527;52.376;8.990;2023-08-06T15:55:05;6.20;;;3.23;;
6973;SDS011;3527;52.376;8.990;2023-08-06T15:57:33;3.77;;;3.00;;